Time;durP1;ratioP1;P1;durP2;ratioP2;P2;SDS_P1;SDS_P2;PMS_P1;PMS_P2;Temp;Humidity;BMP_temperature;BMP_pressure;BME280_temperature;BME280_humidity;BME280_pressure;Samples;Min_cycle;Max_cycle;Signal;HPM_P1;HPM_P2
2024/01/16 00:00:36;;;;;;;98.38;58.50;;;21.30;99.90;;;;;;5002562;28;20524;-53
2024/01/16 00:03:01;;;;;;;97.72;58.00;;;21.30;99.90;;;;;;5015293;28;20046;-54
2024/01/16 00:05:27;;;;;;;95.70;56.00;;;21.30;99.90;;;;;;5002171;28;20029;-54
2024/01/16 00:07:53;;;;;;;95.93;54.42;;;21.30;99.90;;;;;;5014814;28;20108;-53
2024/01/16 00:10:19;;;;;;;91.78;55.58;;;21.20;99.90;;;;;;5014565;28;20026;-54
2024/01/16 00:12:44;;;;;;;101.70;54.70;;;21.20;99.90;;;;;;5015266;28;20054;-54
2024/01/16 00:15:10;;;;;;;94.28;53.92;;;21.20;99.90;;;;;;5014214;28;20124;-53
2024/01/16 00:17:36;;;;;;;104.88;57.00;;;21.20;99.90;;;;;;5015478;28;20084;-53
2024/01/16 00:20:03;;;;;;;91.00;53.15;;;21.20;99.90;;;;;;5014479;28;20506;-53
2024/01/16 00:22:29;;;;;;;98.47;56.85;;;21.20;99.90;;;;;;5015351;28;20026;-53
2024/01/16 00:24:55;;;;;;;96.95;54.78;;;21.20;99.90;;;;;;5015391;28;20088;-53
2024/01/16 00:27:21;;;;;;;94.18;54.20;;;21.20;99.90;;;;;;5015133;28;20036;-54
2024/01/16 00:29:47;;;;;;;84.63;49.78;;;21.20;99.90;;;;;;5015584;28;20030;-53
2024/01/16 00:32:15;;;;;;;89.30;48.55;;;21.20;99.90;;;;;;5015232;28;20038;-53
2024/01/16 00:34:42;;;;;;;86.07;49.28;;;21.20;99.90;;;;;;5015209;28;20025;-53
2024/01/16 00:37:08;;;;;;;78.30;48.80;;;21.20;99.90;;;;;;5013745;28;20026;-53
2024/01/16 00:39:34;;;;;;;95.00;50.90;;;21.20;99.90;;;;;;5015045;28;20081;-53
2024/01/16 00:42:00;;;;;;;78.78;47.38;;;21.10;99.90;;;;;;5014833;28;20390;-53
2024/01/16 00:44:26;;;;;;;85.30;47.73;;;21.20;99.90;;;;;;5015152;28;20014;-53
2024/01/16 00:46:52;;;;;;;84.60;47.25;;;21.10;99.90;;;;;;5014990;28;20045;-53
2024/01/16 00:49:18;;;;;;;78.70;46.13;;;21.20;99.90;;;;;;5015063;28;20111;-52
2024/01/16 00:51:43;;;;;;;76.13;46.75;;;21.10;99.90;;;;;;5014789;28;20030;-53
2024/01/16 00:54:09;;;;;;;78.43;44.17;;;21.10;99.90;;;;;;5014471;28;20018;-53
2024/01/16 00:56:36;;;;;;;76.18;42.85;;;21.10;99.90;;;;;;5014277;28;20040;-53
2024/01/16 00:59:02;;;;;;;77.65;44.33;;;21.10;99.90;;;;;;5014657;28;20022;-53
2024/01/16 01:01:28;;;;;;;76.10;44.00;;;21.10;99.90;;;;;;5036513;23;20057;-55
2024/01/16 01:03:54;;;;;;;74.68;44.13;;;21.10;99.90;;;;;;5033483;28;20564;-54
2024/01/16 01:06:21;;;;;;;68.47;39.65;;;21.10;99.90;;;;;;5034707;28;20029;-54
2024/01/16 01:08:47;;;;;;;68.35;41.03;;;21.10;99.90;;;;;;5034421;28;20056;-54
2024/01/16 01:11:12;;;;;;;63.92;36.97;;;21.10;99.90;;;;;;5034230;28;20466;-54
2024/01/16 01:13:38;;;;;;;66.85;37.92;;;21.10;99.90;;;;;;5034260;28;20055;-54
2024/01/16 01:16:04;;;;;;;58.83;35.88;;;21.10;99.90;;;;;;5034108;28;20026;-54
2024/01/16 01:18:30;;;;;;;63.25;36.03;;;21.00;99.90;;;;;;5032844;28;20030;-54
2024/01/16 01:20:56;;;;;;;64.88;38.78;;;21.00;99.90;;;;;;5034008;28;20025;-56
2024/01/16 01:23:22;;;;;;;64.68;34.72;;;21.00;99.90;;;;;;5034505;28;20485;-54
2024/01/16 01:25:48;;;;;;;59.85;35.85;;;21.00;99.90;;;;;;5034076;28;20525;-54
2024/01/16 01:28:13;;;;;;;70.05;38.00;;;21.00;99.90;;;;;;5033981;28;20112;-54
2024/01/16 01:30:40;;;;;;;66.60;38.38;;;21.00;99.90;;;;;;5034065;28;20385;-54
2024/01/16 01:33:05;;;;;;;61.80;36.72;;;21.00;99.90;;;;;;5033924;28;20091;-54
2024/01/16 01:35:31;;;;;;;59.50;34.88;;;21.00;99.90;;;;;;5033885;28;20014;-54
2024/01/16 01:37:57;;;;;;;62.13;36.63;;;21.00;99.90;;;;;;5033849;28;20040;-54
2024/01/16 01:40:23;;;;;;;61.88;36.20;;;21.00;99.90;;;;;;5033835;28;20480;-54
2024/01/16 01:42:48;;;;;;;49.00;32.17;;;21.00;99.90;;;;;;5033261;28;20048;-54
2024/01/16 01:45:14;;;;;;;59.15;35.05;;;21.00;99.90;;;;;;5033755;28;20036;-55
2024/01/16 01:47:44;;;;;;;60.90;36.83;;;20.90;99.90;;;;;;5033684;28;20132;-54
2024/01/16 01:50:10;;;;;;;62.05;37.50;;;21.00;99.90;;;;;;5033626;28;20091;-54
2024/01/16 01:52:40;;;;;;;58.70;33.28;;;21.00;99.90;;;;;;5033492;28;20523;-54
2024/01/16 01:55:12;;;;;;;55.78;34.60;;;20.90;99.90;;;;;;5033468;28;20076;-54
2024/01/16 01:57:38;;;;;;;58.75;35.35;;;21.00;99.90;;;;;;5033398;28;20029;-54
2024/01/16 02:00:04;;;;;;;58.08;32.42;;;20.90;99.90;;;;;;5034017;28;20485;-54
2024/01/16 02:02:32;;;;;;;52.47;34.20;;;21.00;99.90;;;;;;5033229;28;20046;-54
2024/01/16 02:04:58;;;;;;;53.28;32.72;;;20.90;99.90;;;;;;5033384;28;20025;-54
2024/01/16 02:07:24;;;;;;;52.78;32.72;;;20.90;99.90;;;;;;5031995;28;20397;-54
2024/01/16 02:09:50;;;;;;;53.63;31.30;;;20.90;99.90;;;;;;5033318;28;20024;-54
2024/01/16 02:12:16;;;;;;;55.30;32.35;;;20.90;99.90;;;;;;5033272;28;20040;-54
2024/01/16 02:14:42;;;;;;;53.30;32.13;;;20.90;99.90;;;;;;5033177;28;20021;-55
2024/01/16 02:17:07;;;;;;;49.45;32.60;;;20.90;99.90;;;;;;5033261;28;20103;-55
2024/01/16 02:19:33;;;;;;;50.83;30.27;;;20.90;99.90;;;;;;5033144;28;20053;-54
2024/01/16 02:22:06;;;;;;;52.53;32.30;;;20.90;99.90;;;;;;5032982;28;20013;-55
2024/01/16 02:24:31;;;;;;;51.72;31.92;;;20.90;99.90;;;;;;5033130;28;20025;-54
2024/01/16 02:26:57;;;;;;;51.85;30.67;;;20.90;99.90;;;;;;5032852;28;20088;-55
2024/01/16 02:29:23;;;;;;;51.88;31.95;;;20.90;99.90;;;;;;5031821;28;20120;-58
2024/01/16 02:31:49;;;;;;;54.53;32.45;;;20.90;99.90;;;;;;5032962;28;20177;-54
2024/01/16 02:34:14;;;;;;;48.58;31.33;;;20.90;99.90;;;;;;5032774;28;20021;-54
2024/01/16 02:36:40;;;;;;;51.17;30.13;;;20.90;99.90;;;;;;5031427;28;20503;-54
2024/01/16 02:39:06;;;;;;;52.47;31.67;;;20.90;99.90;;;;;;5032795;28;20025;-54
2024/01/16 02:41:32;;;;;;;49.25;30.40;;;20.90;99.90;;;;;;5032837;28;20087;-54
2024/01/16 02:43:57;;;;;;;46.97;29.40;;;20.90;99.90;;;;;;5033394;28;20535;-54
2024/01/16 02:46:24;;;;;;;47.78;30.05;;;20.80;99.90;;;;;;5032709;28;20032;-54
2024/01/16 02:48:50;;;;;;;51.33;29.42;;;20.80;99.90;;;;;;5032720;28;20017;-55
2024/01/16 02:51:16;;;;;;;48.75;29.63;;;20.80;99.90;;;;;;5032504;28;20048;-54
2024/01/16 02:53:41;;;;;;;42.95;27.88;;;20.80;99.90;;;;;;5032510;28;20029;-54
2024/01/16 02:56:08;;;;;;;48.95;29.58;;;20.80;99.90;;;;;;5032470;28;20021;-54
2024/01/16 02:58:34;;;;;;;47.17;28.20;;;20.80;99.90;;;;;;5032296;28;20031;-54
2024/01/16 03:01:01;;;;;;;48.33;28.02;;;20.80;99.90;;;;;;5037512;23;20144;-58
2024/01/16 03:03:27;;;;;;;52.58;28.55;;;20.80;99.90;;;;;;5013016;28;20029;-58
2024/01/16 03:05:53;;;;;;;47.00;28.10;;;20.80;99.90;;;;;;5012551;28;20394;-58
2024/01/16 03:08:19;;;;;;;43.55;27.35;;;20.80;99.90;;;;;;5012654;28;20036;-58
2024/01/16 03:10:45;;;;;;;41.08;25.70;;;20.80;99.90;;;;;;5012591;28;20080;-59
2024/01/16 03:13:10;;;;;;;48.22;28.23;;;20.80;99.90;;;;;;5012468;28;20053;-58
2024/01/16 03:15:36;;;;;;;43.53;26.25;;;20.80;99.90;;;;;;5012557;28;20049;-59
2024/01/16 03:18:02;;;;;;;43.97;27.52;;;20.80;99.90;;;;;;5012091;28;20033;-60
2024/01/16 03:20:28;;;;;;;42.40;27.55;;;20.80;99.90;;;;;;5012686;28;20022;-59
2024/01/16 03:22:54;;;;;;;46.28;27.17;;;20.80;99.90;;;;;;5012465;28;20041;-59
2024/01/16 03:25:21;;;;;;;44.45;26.15;;;20.80;99.90;;;;;;5012564;28;20057;-59
2024/01/16 03:27:47;;;;;;;43.63;27.10;;;20.80;99.90;;;;;;5011317;28;20060;-61
2024/01/16 03:30:13;;;;;;;44.30;26.30;;;20.80;99.90;;;;;;5012587;28;20263;-59
2024/01/16 03:32:39;;;;;;;36.38;24.25;;;20.70;99.90;;;;;;5012374;28;20037;-58
2024/01/16 03:35:06;;;;;;;43.03;25.50;;;20.70;99.90;;;;;;5012318;28;20040;-59
2024/01/16 03:37:32;;;;;;;41.17;25.25;;;20.70;99.90;;;;;;5012388;28;20026;-59
2024/01/16 03:39:58;;;;;;;40.28;25.40;;;20.70;99.90;;;;;;5012574;28;20029;-59
2024/01/16 03:42:24;;;;;;;41.10;26.52;;;20.70;99.90;;;;;;5012415;28;20026;-59
2024/01/16 03:44:49;;;;;;;40.22;25.13;;;20.70;99.90;;;;;;5012429;28;20058;-59
2024/01/16 03:47:15;;;;;;;42.88;25.58;;;20.70;99.90;;;;;;5012429;28;20123;-59
2024/01/16 03:49:41;;;;;;;40.78;24.95;;;20.70;99.90;;;;;;5011031;28;20022;-59
2024/01/16 03:52:08;;;;;;;40.17;24.65;;;20.70;99.90;;;;;;5012205;28;20458;-58
2024/01/16 03:54:34;;;;;;;39.97;24.58;;;20.70;99.90;;;;;;5012212;28;20022;-59
2024/01/16 03:56:59;;;;;;;38.50;24.55;;;20.70;99.90;;;;;;5010984;28;20080;-59
2024/01/16 03:59:25;;;;;;;39.78;23.38;;;20.70;99.90;;;;;;5010919;28;20030;-59
2024/01/16 04:01:52;;;;;;;36.10;23.73;;;20.60;99.90;;;;;;5022323;23;20073;-54
2024/01/16 04:04:18;;;;;;;38.63;24.13;;;20.70;99.90;;;;;;5011294;28;20438;-54
2024/01/16 04:06:43;;;;;;;36.53;21.95;;;20.70;99.90;;;;;;5011982;28;20120;-54
2024/01/16 04:09:09;;;;;;;37.10;23.40;;;20.70;99.90;;;;;;5010669;28;20026;-54
2024/01/16 04:11:36;;;;;;;36.50;22.92;;;20.70;99.90;;;;;;5012128;28;20053;-54
2024/01/16 04:14:02;;;;;;;35.40;22.25;;;20.70;99.90;;;;;;5011979;28;20022;-55
2024/01/16 04:16:28;;;;;;;38.35;23.45;;;20.70;99.90;;;;;;5011972;28;20079;-54
2024/01/16 04:18:54;;;;;;;37.95;23.20;;;20.70;99.90;;;;;;5011399;28;20118;-54
2024/01/16 04:21:19;;;;;;;35.60;21.60;;;20.70;99.90;;;;;;5012106;28;20080;-54
2024/01/16 04:23:45;;;;;;;36.80;21.40;;;20.60;99.90;;;;;;5012153;28;20030;-54
2024/01/16 04:26:11;;;;;;;34.50;22.02;;;20.60;99.90;;;;;;5011829;28;20108;-54
2024/01/16 04:28:37;;;;;;;35.90;21.75;;;20.60;99.90;;;;;;5011850;28;20026;-55
2024/01/16 04:31:04;;;;;;;33.63;20.63;;;20.60;99.90;;;;;;5013516;28;20486;-53
2024/01/16 04:33:30;;;;;;;34.47;20.20;;;20.60;99.90;;;;;;5014299;28;20029;-52
2024/01/16 04:35:56;;;;;;;35.00;21.75;;;20.60;99.90;;;;;;5014094;28;20080;-54
2024/01/16 04:38:22;;;;;;;34.65;19.58;;;20.60;99.90;;;;;;5013956;28;20026;-55
2024/01/16 04:40:48;;;;;;;32.30;19.77;;;20.60;99.90;;;;;;5014826;28;20470;-54
2024/01/16 04:43:14;;;;;;;36.05;20.73;;;20.60;99.90;;;;;;5014006;28;20109;-55
2024/01/16 04:45:40;;;;;;;34.88;20.65;;;20.60;99.90;;;;;;5010661;28;20515;-54
2024/01/16 04:48:05;;;;;;;33.10;21.55;;;20.60;99.90;;;;;;5013596;28;20092;-54
2024/01/16 04:50:31;;;;;;;32.45;19.40;;;20.60;99.90;;;;;;5014658;28;20473;-54
2024/01/16 04:53:01;;;;;;;29.92;18.52;;;20.60;99.90;;;;;;5013464;28;20064;-54
2024/01/16 04:55:28;;;;;;;31.88;18.98;;;20.50;99.90;;;;;;5014856;28;20054;-54
2024/01/16 04:57:54;;;;;;;32.83;18.83;;;20.60;99.90;;;;;;5014928;28;20034;-54
2024/01/16 05:00:21;;;;;;;30.20;19.23;;;20.60;99.90;;;;;;5015034;28;20029;-54
2024/01/16 05:02:47;;;;;;;33.03;18.48;;;20.50;99.90;;;;;;5013674;28;20516;-54
2024/01/16 05:05:13;;;;;;;33.63;18.17;;;20.50;99.90;;;;;;4997215;28;20034;-54
2024/01/16 05:07:39;;;;;;;29.75;17.90;;;20.60;99.90;;;;;;5013439;28;20144;-54
2024/01/16 05:10:06;;;;;;;28.23;17.05;;;20.50;99.90;;;;;;5014720;28;20399;-54
2024/01/16 05:12:32;;;;;;;30.02;18.25;;;20.50;99.90;;;;;;5014651;28;20018;-54
2024/01/16 05:14:58;;;;;;;27.27;17.30;;;20.50;99.90;;;;;;5014414;28;20366;-54
2024/01/16 05:17:24;;;;;;;29.08;18.05;;;20.50;99.90;;;;;;5014686;28;20014;-54
2024/01/16 05:19:50;;;;;;;26.67;16.90;;;20.50;99.90;;;;;;5014940;28;20374;-54
2024/01/16 05:22:15;;;;;;;31.27;17.23;;;20.50;99.90;;;;;;5014429;28;20030;-55
2024/01/16 05:24:41;;;;;;;29.83;16.80;;;20.50;99.90;;;;;;5014509;28;20057;-54
2024/01/16 05:27:08;;;;;;;29.33;16.95;;;20.50;99.90;;;;;;5014324;28;20038;-54
2024/01/16 05:29:37;;;;;;;28.75;16.90;;;20.50;99.90;;;;;;5014304;28;20026;-54
2024/01/16 05:32:03;;;;;;;28.25;16.75;;;20.50;99.90;;;;;;5014262;28;20026;-54
2024/01/16 05:34:29;;;;;;;25.98;16.63;;;20.50;99.90;;;;;;5014036;28;20022;-54
2024/01/16 05:36:55;;;;;;;25.65;15.40;;;20.50;99.90;;;;;;5014110;28;20018;-54
2024/01/16 05:39:21;;;;;;;28.45;15.32;;;20.50;99.90;;;;;;5014208;28;20109;-54
2024/01/16 05:41:47;;;;;;;25.38;16.20;;;20.50;99.90;;;;;;5013723;28;20033;-54
2024/01/16 05:44:13;;;;;;;23.20;14.27;;;20.50;99.90;;;;;;5014046;28;20029;-54
2024/01/16 05:46:38;;;;;;;23.27;14.70;;;20.50;99.90;;;;;;5013993;28;20034;-54
2024/01/16 05:49:04;;;;;;;25.58;14.82;;;20.50;99.90;;;;;;5012643;28;20029;-54
2024/01/16 05:51:30;;;;;;;24.60;15.30;;;20.50;99.90;;;;;;5014204;28;20026;-54
2024/01/16 05:53:57;;;;;;;25.25;14.52;;;20.50;99.90;;;;;;5013915;28;20080;-54
2024/01/16 05:56:23;;;;;;;21.27;13.90;;;20.50;99.90;;;;;;5013949;28;20104;-53
2024/01/16 05:58:48;;;;;;;23.30;14.80;;;20.50;99.90;;;;;;5012437;28;20113;-54
2024/01/16 06:01:14;;;;;;;25.08;14.48;;;20.50;99.90;;;;;;5012322;28;20061;-53
2024/01/16 06:03:41;;;;;;;23.33;13.15;;;20.50;99.90;;;;;;5013402;28;20382;-54
2024/01/16 06:06:07;;;;;;;21.13;13.02;;;20.50;99.90;;;;;;5013541;28;20025;-54
2024/01/16 06:08:36;;;;;;;25.40;13.60;;;20.40;99.90;;;;;;5013497;28;20568;-54
2024/01/16 06:11:02;;;;;;;21.52;14.35;;;20.40;99.90;;;;;;5013574;28;20030;-54
2024/01/16 06:13:30;;;;;;;21.88;13.30;;;20.40;99.90;;;;;;5013515;28;20045;-54
2024/01/16 06:15:55;;;;;;;19.27;12.10;;;20.40;99.90;;;;;;5013625;28;20018;-54
2024/01/16 06:18:21;;;;;;;24.63;14.00;;;20.40;99.90;;;;;;5012762;28;20028;-54
2024/01/16 06:20:47;;;;;;;24.38;14.13;;;20.40;99.90;;;;;;5013166;28;20041;-54
2024/01/16 06:23:13;;;;;;;20.63;13.10;;;20.40;99.90;;;;;;5013338;28;20053;-54
2024/01/16 06:25:38;;;;;;;23.05;13.15;;;20.40;99.90;;;;;;5013120;28;20029;-54
2024/01/16 06:28:05;;;;;;;18.67;13.02;;;20.40;99.90;;;;;;5013157;28;20034;-54
2024/01/16 06:30:31;;;;;;;23.25;13.52;;;20.40;99.90;;;;;;5013144;28;20018;-54
2024/01/16 06:32:57;;;;;;;28.75;14.02;;;20.40;99.90;;;;;;5013179;28;20026;-54
2024/01/16 06:35:23;;;;;;;26.30;12.77;;;20.40;99.90;;;;;;5013358;28;20026;-54
2024/01/16 06:37:49;;;;;;;20.98;12.65;;;20.40;99.90;;;;;;5013010;28;20105;-54
2024/01/16 06:40:15;;;;;;;23.73;13.05;;;20.40;99.90;;;;;;5012988;28;20105;-54
2024/01/16 06:42:41;;;;;;;17.65;11.07;;;20.40;99.90;;;;;;5012853;28;20049;-55
2024/01/16 06:45:07;;;;;;;18.73;11.68;;;20.40;99.90;;;;;;5013126;28;20026;-55
2024/01/16 06:47:33;;;;;;;20.67;13.32;;;20.40;99.90;;;;;;5012965;28;20038;-54
2024/01/16 06:49:58;;;;;;;19.45;11.75;;;20.40;99.90;;;;;;5012818;28;20037;-54
2024/01/16 06:52:24;;;;;;;24.48;12.30;;;20.40;99.90;;;;;;5012421;28;20030;-54
2024/01/16 06:54:50;;;;;;;16.95;10.80;;;20.40;99.90;;;;;;5012576;28;20070;-54
2024/01/16 06:57:16;;;;;;;22.35;12.30;;;20.40;99.90;;;;;;5012764;28;20033;-54
2024/01/16 06:59:42;;;;;;;23.13;13.68;;;20.40;99.90;;;;;;5012821;28;20382;-54
2024/01/16 07:02:08;;;;;;;17.27;11.40;;;20.40;99.90;;;;;;5011177;28;20069;-54
2024/01/16 07:04:34;;;;;;;18.45;11.48;;;20.40;99.90;;;;;;5012691;28;20030;-54
2024/01/16 07:06:59;;;;;;;22.58;11.88;;;20.40;99.90;;;;;;5012308;28;20366;-55
2024/01/16 07:09:27;;;;;;;20.85;11.30;;;20.40;99.90;;;;;;5012633;28;20107;-54
2024/01/16 07:11:53;;;;;;;19.13;10.98;;;20.40;99.90;;;;;;5012821;28;20435;-54
2024/01/16 07:14:20;;;;;;;17.85;11.45;;;20.40;99.90;;;;;;4994690;28;20486;-54
2024/01/16 07:16:46;;;;;;;24.02;11.38;;;20.40;99.90;;;;;;5012451;28;20116;-54
2024/01/16 07:19:12;;;;;;;20.02;11.75;;;20.30;99.90;;;;;;5012410;28;20018;-53
2024/01/16 07:21:38;;;;;;;22.80;11.55;;;20.40;99.90;;;;;;5012409;28;20030;-53
2024/01/16 07:24:04;;;;;;;19.63;12.02;;;20.30;99.90;;;;;;5012187;28;20026;-53
2024/01/16 07:26:30;;;;;;;17.85;10.68;;;20.40;99.90;;;;;;5012257;28;20046;-53
2024/01/16 07:28:56;;;;;;;19.40;10.88;;;20.30;99.90;;;;;;5012565;28;20040;-54
2024/01/16 07:31:22;;;;;;;21.15;11.77;;;20.40;99.90;;;;;;5012231;28;20053;-54
2024/01/16 07:33:48;;;;;;;19.52;10.93;;;20.30;99.90;;;;;;5012376;28;20077;-54
2024/01/16 07:36:14;;;;;;;18.17;10.30;;;20.30;99.90;;;;;;5012360;28;20029;-54
2024/01/16 07:38:39;;;;;;;21.52;10.95;;;20.30;99.90;;;;;;5012046;28;20068;-53
2024/01/16 07:41:05;;;;;;;21.15;10.90;;;20.30;99.90;;;;;;5012120;28;20109;-53
2024/01/16 07:43:32;;;;;;;14.88;9.80;;;20.30;99.90;;;;;;5012301;28;20026;-54
2024/01/16 07:45:58;;;;;;;21.15;11.32;;;20.30;99.90;;;;;;5012454;28;20037;-54
2024/01/16 07:48:24;;;;;;;20.15;11.50;;;20.30;99.90;;;;;;5012244;28;20504;-54
2024/01/16 07:50:50;;;;;;;14.82;9.95;;;20.30;99.90;;;;;;5012068;28;20034;-54
2024/01/16 07:53:16;;;;;;;18.98;10.95;;;20.30;99.90;;;;;;5012249;28;20022;-54
2024/01/16 07:55:43;;;;;;;20.00;10.93;;;20.30;99.90;;;;;;5012178;28;20374;-54
2024/01/16 07:58:12;;;;;;;19.40;10.07;;;20.30;99.90;;;;;;5012178;28;20030;-54
2024/01/16 08:00:38;;;;;;;17.52;10.20;;;20.30;99.90;;;;;;5011798;28;20018;-53
2024/01/16 08:03:07;;;;;;;17.35;9.95;;;20.30;99.90;;;;;;5012048;28;20053;-53
2024/01/16 08:05:32;;;;;;;19.08;9.55;;;20.30;99.90;;;;;;5015086;28;20436;-53
2024/01/16 08:07:58;;;;;;;16.40;9.32;;;20.30;99.90;;;;;;5016005;28;20026;-54
2024/01/16 08:10:24;;;;;;;17.50;9.90;;;20.30;99.90;;;;;;5015728;28;20036;-54
2024/01/16 08:12:50;;;;;;;17.48;9.32;;;20.30;99.90;;;;;;5015617;28;20026;-54
2024/01/16 08:15:16;;;;;;;18.50;9.68;;;20.30;99.90;;;;;;5015639;28;20026;-53
2024/01/16 08:17:41;;;;;;;17.20;10.75;;;20.30;99.90;;;;;;5015693;28;20018;-54
2024/01/16 08:20:11;;;;;;;15.63;9.77;;;20.30;99.90;;;;;;5015640;28;20038;-54
2024/01/16 08:22:37;;;;;;;16.85;9.88;;;20.30;99.90;;;;;;5014141;28;20079;-54
2024/01/16 08:25:06;;;;;;;18.70;10.73;;;20.30;99.90;;;;;;5015374;28;20026;-54
2024/01/16 08:27:33;;;;;;;18.58;9.75;;;20.30;99.90;;;;;;5015606;28;20033;-53
2024/01/16 08:29:59;;;;;;;18.40;9.50;;;20.30;99.90;;;;;;5015685;28;20172;-53
2024/01/16 08:32:25;;;;;;;18.77;9.63;;;20.30;99.90;;;;;;5015407;28;20521;-55
2024/01/16 08:34:51;;;;;;;17.85;9.18;;;20.30;99.90;;;;;;5015232;28;20030;-54
2024/01/16 08:37:17;;;;;;;18.48;10.15;;;20.30;99.90;;;;;;5015359;28;20036;-54
2024/01/16 08:39:43;;;;;;;17.38;9.82;;;20.30;99.90;;;;;;5015415;28;20415;-54
2024/01/16 08:42:11;;;;;;;17.80;9.88;;;20.40;99.90;;;;;;5015177;28;20033;-54
2024/01/16 08:44:39;;;;;;;14.57;9.20;;;20.40;99.90;;;;;;5013802;28;20025;-55
2024/01/16 08:47:06;;;;;;;14.18;9.48;;;20.40;99.90;;;;;;5015043;28;20045;-55
2024/01/16 08:49:33;;;;;;;18.50;8.97;;;20.40;99.90;;;;;;5015187;28;20034;-54
2024/01/16 08:51:59;;;;;;;15.82;8.57;;;20.40;99.90;;;;;;5015174;28;20271;-54
2024/01/16 08:54:26;;;;;;;15.18;9.40;;;20.40;99.90;;;;;;5014880;28;20030;-54
2024/01/16 08:56:52;;;;;;;15.68;8.80;;;20.40;99.90;;;;;;5014857;28;20532;-54
2024/01/16 08:59:18;;;;;;;14.40;8.50;;;20.40;99.90;;;;;;5014907;28;20034;-53
2024/01/16 09:01:44;;;;;;;15.55;9.40;;;20.40;99.90;;;;;;5014522;28;20042;-54
2024/01/16 09:04:11;;;;;;;16.80;9.23;;;20.40;99.90;;;;;;5014657;28;20110;-54
2024/01/16 09:06:37;;;;;;;17.05;8.63;;;20.40;99.90;;;;;;5014707;28;20034;-55
2024/01/16 09:09:06;;;;;;;15.57;8.20;;;20.40;99.90;;;;;;5013608;28;20096;-54
2024/01/16 09:11:32;;;;;;;19.52;9.02;;;20.40;99.90;;;;;;5013749;28;20378;-56
2024/01/16 09:13:58;;;;;;;16.27;9.02;;;20.40;99.90;;;;;;5014422;28;20033;-54
2024/01/16 09:16:23;;;;;;;13.93;8.48;;;20.40;99.90;;;;;;5012461;28;20138;-54
2024/01/16 09:18:49;;;;;;;18.08;8.48;;;20.40;99.90;;;;;;5014262;28;20486;-54
2024/01/16 09:21:16;;;;;;;17.13;8.48;;;20.40;99.90;;;;;;5014403;28;20488;-54
2024/01/16 09:23:42;;;;;;;15.48;8.15;;;20.40;99.90;;;;;;5014498;28;20467;-54
2024/01/16 09:26:08;;;;;;;16.23;8.23;;;20.50;99.90;;;;;;5014331;28;20040;-55
2024/01/16 09:28:33;;;;;;;20.77;8.75;;;20.50;99.90;;;;;;5014418;28;20026;-54
2024/01/16 09:30:59;;;;;;;16.67;8.27;;;20.50;99.90;;;;;;5014253;28;20022;-54
2024/01/16 09:33:25;;;;;;;13.48;8.88;;;20.40;99.90;;;;;;5014145;28;20030;-54
2024/01/16 09:35:51;;;;;;;13.95;8.20;;;20.40;99.90;;;;;;5014087;28;20543;-54
2024/01/16 09:38:17;;;;;;;17.50;8.80;;;20.40;99.90;;;;;;5014015;28;20500;-54
2024/01/16 09:40:44;;;;;;;14.88;8.02;;;20.40;99.90;;;;;;5014081;28;20029;-55
2024/01/16 09:43:11;;;;;;;16.30;8.48;;;20.40;99.90;;;;;;5014052;28;20022;-55
2024/01/16 09:45:40;;;;;;;13.85;8.02;;;20.40;99.90;;;;;;5013786;28;20029;-55
2024/01/16 09:48:07;;;;;;;13.73;7.75;;;20.40;99.90;;;;;;5014123;28;20064;-55
2024/01/16 09:50:34;;;;;;;12.95;8.13;;;20.50;99.90;;;;;;5013877;28;20022;-55
2024/01/16 09:53:00;;;;;;;14.35;8.38;;;20.50;99.90;;;;;;5013556;28;20474;-54
2024/01/16 09:55:26;;;;;;;18.27;8.73;;;20.40;99.90;;;;;;5013669;28;20033;-55
2024/01/16 09:57:55;;;;;;;14.02;8.50;;;20.40;99.90;;;;;;5013585;28;20026;-55
2024/01/16 10:00:24;;;;;;;13.57;8.10;;;20.40;99.90;;;;;;5013466;28;20029;-55
2024/01/16 10:02:50;;;;;;;15.23;7.75;;;20.40;99.90;;;;;;5013549;28;20042;-54
2024/01/16 10:05:16;;;;;;;16.40;8.02;;;20.40;99.90;;;;;;5013721;28;20097;-56
2024/01/16 10:07:45;;;;;;;15.18;8.10;;;20.40;99.90;;;;;;5013429;28;20109;-55
2024/01/16 10:10:12;;;;;;;15.90;8.52;;;20.40;99.90;;;;;;5013480;28;20367;-55
2024/01/16 10:12:39;;;;;;;16.73;8.20;;;20.40;99.90;;;;;;5012337;28;20026;-55
2024/01/16 10:15:09;;;;;;;14.95;8.15;;;20.40;99.90;;;;;;5013494;28;20057;-55
2024/01/16 10:17:42;;;;;;;13.68;7.88;;;20.40;99.90;;;;;;5012101;28;20036;-54
2024/01/16 10:20:13;;;;;;;14.30;7.63;;;20.40;99.90;;;;;;5013598;28;20025;-54
2024/01/16 10:22:51;;;;;;;14.90;7.93;;;20.40;99.90;;;;;;5013196;28;20021;-54
2024/01/16 10:25:19;;;;;;;15.20;7.70;;;20.50;99.90;;;;;;5012930;28;20025;-53
2024/01/16 10:27:46;;;;;;;14.98;7.57;;;20.50;99.90;;;;;;5013071;28;20437;-54
2024/01/16 10:30:12;;;;;;;14.93;7.15;;;20.50;99.90;;;;;;5013105;28;20049;-54
2024/01/16 10:32:42;;;;;;;16.48;8.05;;;20.50;99.90;;;;;;5013169;28;20450;-54
2024/01/16 10:35:10;;;;;;;15.25;8.98;;;20.50;99.90;;;;;;5013032;28;20029;-55
2024/01/16 10:37:48;;;;;;;13.32;7.32;;;20.50;99.90;;;;;;5013129;28;20481;-55
2024/01/16 10:40:15;;;;;;;15.50;6.95;;;20.50;99.90;;;;;;5012939;28;20025;-54
2024/01/16 10:42:41;;;;;;;14.60;8.05;;;20.50;99.90;;;;;;5012858;28;20024;-54
2024/01/16 10:45:07;;;;;;;13.65;7.40;;;20.50;99.90;;;;;;4995435;28;20468;-54
2024/01/16 10:47:37;;;;;;;20.08;8.30;;;20.60;99.90;;;;;;5012734;28;20092;-54
2024/01/16 10:50:09;;;;;;;15.10;8.48;;;20.50;99.90;;;;;;5012652;28;20022;-54
2024/01/16 10:52:40;;;;;;;15.60;8.50;;;20.60;99.90;;;;;;5012660;28;20029;-54
2024/01/16 10:55:09;;;;;;;18.10;7.47;;;20.60;99.90;;;;;;5012808;28;20018;-54
2024/01/16 10:57:40;;;;;;;20.38;8.10;;;20.60;99.90;;;;;;5012708;28;20026;-54
2024/01/16 11:00:11;;;;;;;12.98;7.82;;;20.60;99.90;;;;;;5012816;28;20111;-54
2024/01/16 11:02:49;;;;;;;12.80;8.23;;;20.60;99.90;;;;;;5012459;28;20046;-54
2024/01/16 11:05:16;;;;;;;;;;;20.60;99.90;;;;;;5013091;28;20087;-54
2024/01/16 11:07:43;;;;;;;14.45;8.30;;;20.70;99.90;;;;;;5011219;28;19913;-55
2024/01/16 11:10:10;;;;;;;13.55;8.57;;;20.70;99.90;;;;;;5012609;28;20025;-54
2024/01/16 11:12:39;;;;;;;19.13;8.60;;;20.70;99.90;;;;;;5012594;28;20049;-54
2024/01/16 11:15:08;;;;;;;18.20;8.98;;;20.70;99.90;;;;;;5012411;28;20018;-54
2024/01/16 11:17:37;;;;;;;19.58;9.00;;;20.70;99.90;;;;;;5012362;28;20486;-55
2024/01/16 11:20:09;;;;;;;17.50;8.68;;;20.70;99.90;;;;;;5012492;28;20054;-54
2024/01/16 11:22:39;;;;;;;20.02;9.80;;;20.80;99.90;;;;;;5012427;28;20029;-55
2024/01/16 11:25:15;;;;;;;13.77;7.95;;;20.80;99.90;;;;;;5012334;28;20019;-55
2024/01/16 11:27:42;;;;;;;17.17;10.02;;;20.80;99.90;;;;;;5012441;28;20044;-54
2024/01/16 11:30:10;;;;;;;16.02;9.38;;;20.80;99.90;;;;;;5012694;28;20088;-53
2024/01/16 11:32:41;;;;;;;23.17;9.30;;;20.90;99.90;;;;;;5010983;28;20080;-54
2024/01/16 11:35:13;;;;;;;15.90;8.40;;;20.90;99.90;;;;;;5012422;28;20104;-55
2024/01/16 11:37:43;;;;;;;15.85;7.88;;;20.90;99.90;;;;;;5011341;28;20038;-54
2024/01/16 11:40:20;;;;;;;14.65;8.82;;;20.90;99.90;;;;;;5015101;28;20013;-55
2024/01/16 11:42:46;;;;;;;15.82;8.93;;;20.90;99.90;;;;;;5016295;28;20025;-55
2024/01/16 11:45:27;;;;;;;19.08;8.90;;;20.90;99.90;;;;;;5016382;28;20092;-54
2024/01/16 11:48:15;;;;;;;18.55;8.32;;;20.90;99.90;;;;;;5016127;28;20065;-55
2024/01/16 11:50:42;;;;;;;16.52;8.15;;;20.90;99.90;;;;;;5016194;28;20022;-55
2024/01/16 11:53:08;;;;;;;15.95;8.98;;;20.90;99.90;;;;;;5016238;28;20038;-55
2024/01/16 11:55:36;;;;;;;17.67;8.32;;;20.90;99.90;;;;;;5016151;28;20050;-55
2024/01/16 11:58:10;;;;;;;;;;;20.90;99.90;;;;;;5016477;28;20018;-55
2024/01/16 12:00:39;;;;;;;22.63;8.45;;;21.00;99.90;;;;;;5015842;28;19905;-55
2024/01/16 12:03:06;;;;;;;17.27;8.68;;;21.00;99.90;;;;;;5014587;28;20084;-55
2024/01/16 12:05:32;;;;;;;18.70;8.95;;;21.00;99.90;;;;;;5014611;28;20030;-54
2024/01/16 12:07:58;;;;;;;16.50;8.18;;;20.90;99.90;;;;;;5015743;28;20405;-54
2024/01/16 12:10:25;;;;;;;14.68;7.70;;;21.00;99.90;;;;;;5015766;28;20026;-54
2024/01/16 12:12:57;;;;;;;15.00;8.55;;;20.90;99.90;;;;;;5015642;28;20026;-54
2024/01/16 12:15:23;;;;;;;16.25;7.53;;;21.00;99.90;;;;;;5014451;28;20026;-53
2024/01/16 12:18:00;;;;;;;13.00;7.70;;;20.90;99.90;;;;;;5015561;28;20067;-54
2024/01/16 12:20:29;;;;;;;14.13;8.25;;;20.90;99.90;;;;;;5015696;28;20045;-54
2024/01/16 12:23:03;;;;;;;14.18;8.38;;;20.90;99.90;;;;;;5015614;28;20045;-54
2024/01/16 12:25:30;;;;;;;13.93;7.45;;;20.90;99.90;;;;;;5015629;28;20381;-54
2024/01/16 12:28:01;;;;;;;17.25;7.10;;;20.90;99.90;;;;;;5014214;28;20055;-54